Time;durP1;ratioP1;P1;durP2;ratioP2;P2;SDS_P1;SDS_P2;PMS_P1;PMS_P2;Temp;Humidity;BMP_temperature;BMP_pressure;BME280_temperature;BME280_humidity;BME280_pressure;Samples;Min_cycle;Max_cycle;Signal;HPM_P1;HPM_P2
2024/01/29 00:01:38;;;;;;;13.10;9.45;;;;;;;;;;10251165;28;20099;-61
2024/01/29 00:06:36;;;;;;;15.70;9.48;;;;;;;;;;10250532;28;20075;-61
2024/01/29 00:11:34;;;;;;;11.10;8.95;;;;;;;;;;10250647;28;20069;-61
2024/01/29 00:16:34;;;;;;;9.68;8.77;;;;;;;;;;10255352;28;20526;-61
2024/01/29 00:21:32;;;;;;;10.05;8.80;;;;;;;;;;10252357;28;20117;-61
2024/01/29 00:26:31;;;;;;;9.43;8.02;;;;;;;;;;10254235;28;20065;-63
2024/01/29 00:31:29;;;;;;;9.40;7.80;;;;;;;;;;10258568;28;20076;-62
2024/01/29 00:36:29;;;;;;;9.38;7.45;;;;;;;;;;10255667;28;20076;-60
2024/01/29 00:41:27;;;;;;;11.23;8.18;;;;;;;;;;10257320;28;20076;-60
2024/01/29 00:46:25;;;;;;;8.88;7.93;;;;;;;;;;10259733;28;20509;-61
2024/01/29 00:51:24;;;;;;;9.32;7.70;;;;;;;;;;10257306;28;20068;-62
2024/01/29 00:56:23;;;;;;;9.93;8.38;;;;;;;;;;10256607;28;20068;-61
2024/01/29 01:01:22;;;;;;;10.95;9.00;;;;;;;;;;10256524;28;20074;-61
2024/01/29 01:06:20;;;;;;;10.43;8.13;;;;;;;;;;10254729;28;20061;-61
2024/01/29 01:11:18;;;;;;;9.27;7.68;;;;;;;;;;10256249;28;20505;-61
2024/01/29 01:16:18;;;;;;;10.55;7.95;;;;;;;;;;10257801;28;20088;-62
2024/01/29 01:21:16;;;;;;;11.13;7.43;;;;;;;;;;10257645;28;20080;-62
2024/01/29 01:26:14;;;;;;;10.73;8.18;;;;;;;;;;10256298;28;20068;-62
2024/01/29 01:31:12;;;;;;;9.38;8.00;;;;;;;;;;10256550;28;20080;-62
2024/01/29 01:36:12;;;;;;;11.02;8.57;;;;;;;;;;10256854;28;20049;-62
2024/01/29 01:41:10;;;;;;;8.95;8.05;;;;;;;;;;10256729;28;20486;-62
2024/01/29 01:46:17;;;;;;;9.70;8.10;;;;;;;;;;10255501;28;20079;-62
2024/01/29 01:51:17;;;;;;;9.15;8.25;;;;;;;;;;10253363;28;20072;-62
2024/01/29 01:56:16;;;;;;;10.07;7.70;;;;;;;;;;10254662;28;20087;-62
2024/01/29 02:01:14;;;;;;;8.82;7.53;;;;;;;;;;10254699;28;20713;-61
2024/01/29 02:06:12;;;;;;;10.00;8.70;;;;;;;;;;10253994;28;20064;-61
2024/01/29 02:11:12;;;;;;;9.07;7.93;;;;;;;;;;10256356;28;20073;-62
2024/01/29 02:16:10;;;;;;;8.65;7.75;;;;;;;;;;10256264;28;20077;-60
2024/01/29 02:21:09;;;;;;;10.48;8.15;;;;;;;;;;10257178;28;20450;-61
2024/01/29 02:26:08;;;;;;;11.95;8.38;;;;;;;;;;10252616;28;20048;-61
2024/01/29 02:31:07;;;;;;;11.93;9.13;;;;;;;;;;10253738;28;20457;-61
2024/01/29 02:36:05;;;;;;;20.90;17.00;;;;;;;;;;10253625;28;20093;-61
2024/01/29 02:41:04;;;;;;;11.45;9.60;;;;;;;;;;10253556;28;20079;-61
2024/01/29 02:46:04;;;;;;;14.20;12.40;;;;;;;;;;10253104;28;20061;-62
2024/01/29 02:51:02;;;;;;;13.07;10.95;;;;;;;;;;10249636;28;20076;-61
2024/01/29 02:56:00;;;;;;;18.40;13.88;;;;;;;;;;10254490;28;20080;-61
2024/01/29 03:00:59;;;;;;;17.17;11.73;;;;;;;;;;10246123;28;20578;-62
2024/01/29 03:05:58;;;;;;;13.13;9.98;;;;;;;;;;10252340;28;20079;-62
2024/01/29 03:10:56;;;;;;;10.18;9.07;;;;;;;;;;10252822;28;20203;-62
2024/01/29 03:15:55;;;;;;;12.30;10.45;;;;;;;;;;10250215;28;20081;-60
2024/01/29 03:20:54;;;;;;;12.73;10.80;;;;;;;;;;10252260;28;20069;-62
2024/01/29 03:25:54;;;;;;;14.43;11.85;;;;;;;;;;10251576;28;20485;-61
2024/01/29 03:30:52;;;;;;;13.52;10.70;;;;;;;;;;10251057;28;20065;-62
2024/01/29 03:35:50;;;;;;;13.32;11.98;;;;;;;;;;10252213;28;20477;-61
2024/01/29 03:40:49;;;;;;;14.25;10.70;;;;;;;;;;10253376;28;20490;-61
2024/01/29 03:45:49;;;;;;;17.77;14.02;;;;;;;;;;10251915;28;20489;-61
2024/01/29 03:50:50;;;;;;;24.40;18.90;;;;;;;;;;10251123;28;20071;-60
2024/01/29 03:55:48;;;;;;;30.05;21.67;;;;;;;;;;10251265;28;20075;-62
2024/01/29 04:00:46;;;;;;;30.40;20.67;;;;;;;;;;10250745;28;20077;-62
2024/01/29 04:05:46;;;;;;;36.83;23.80;;;;;;;;;;10258650;28;20080;-61
2024/01/29 04:10:44;;;;;;;114.03;72.30;;;;;;;;;;10253958;28;20065;-61
2024/01/29 04:15:43;;;;;;;61.22;42.63;;;;;;;;;;10259079;28;20096;-61
2024/01/29 04:20:41;;;;;;;36.30;28.20;;;;;;;;;;10258347;28;20072;-61
2024/01/29 04:25:40;;;;;;;30.23;20.83;;;;;;;;;;10258852;28;20366;-60
2024/01/29 04:30:39;;;;;;;20.98;16.50;;;;;;;;;;10257194;28;20098;-61
2024/01/29 04:35:37;;;;;;;20.98;15.32;;;;;;;;;;10257575;28;20077;-62
2024/01/29 04:40:39;;;;;;;15.93;14.13;;;;;;;;;;10257720;28;20073;-62
2024/01/29 04:45:39;;;;;;;23.23;16.60;;;;;;;;;;10255933;28;20076;-61
2024/01/29 04:50:37;;;;;;;34.97;25.77;;;;;;;;;;10260930;28;20076;-62
2024/01/29 04:55:35;;;;;;;27.52;21.10;;;;;;;;;;10257486;28;20080;-61
2024/01/29 05:00:34;;;;;;;22.08;16.80;;;;;;;;;;10258932;28;20348;-60
2024/01/29 05:05:34;;;;;;;20.83;16.95;;;;;;;;;;10255837;28;20439;-61
2024/01/29 05:10:32;;;;;;;16.05;13.15;;;;;;;;;;10253493;28;20533;-61
2024/01/29 05:15:30;;;;;;;14.25;11.23;;;;;;;;;;10252576;28;20073;-61
2024/01/29 05:20:29;;;;;;;13.95;11.05;;;;;;;;;;10255682;28;20073;-61
2024/01/29 05:25:29;;;;;;;18.05;13.07;;;;;;;;;;10255078;28;20072;-61
2024/01/29 05:30:27;;;;;;;15.23;12.18;;;;;;;;;;10255599;28;20073;-62
2024/01/29 05:35:25;;;;;;;18.60;15.63;;;;;;;;;;10256808;28;20073;-62
2024/01/29 05:40:24;;;;;;;16.35;13.23;;;;;;;;;;10253743;28;20076;-62
2024/01/29 05:45:23;;;;;;;15.75;12.98;;;;;;;;;;10254051;28;20477;-61
2024/01/29 05:50:21;;;;;;;25.27;17.38;;;;;;;;;;10253867;28;20065;-62
2024/01/29 05:55:20;;;;;;;24.45;16.50;;;;;;;;;;10250717;28;20076;-61
2024/01/29 06:00:18;;;;;;;26.65;18.42;;;;;;;;;;10250785;28;20072;-61
2024/01/29 06:05:18;;;;;;;24.35;17.52;;;;;;;;;;10263859;28;20527;-61
2024/01/29 06:10:17;;;;;;;27.13;17.23;;;;;;;;;;10258941;28;20072;-60
2024/01/29 06:15:15;;;;;;;23.27;18.52;;;;;;;;;;10251248;28;20076;-62
2024/01/29 06:20:13;;;;;;;30.33;20.88;;;;;;;;;;10252496;28;20568;-62
2024/01/29 06:25:19;;;;;;;34.92;23.92;;;;;;;;;;10255197;28;20088;-62
2024/01/29 06:30:18;;;;;;;26.42;18.38;;;;;;;;;;10253361;28;20075;-61
2024/01/29 06:35:18;;;;;;;23.88;18.92;;;;;;;;;;10253667;28;20072;-61
2024/01/29 06:40:18;;;;;;;19.60;15.88;;;;;;;;;;10253579;28;20068;-61
2024/01/29 06:45:16;;;;;;;17.23;12.00;;;;;;;;;;10252574;28;20091;-62
2024/01/29 06:50:14;;;;;;;19.80;14.25;;;;;;;;;;10253956;28;20607;-62
2024/01/29 06:55:13;;;;;;;20.10;15.30;;;;;;;;;;10253023;28;20068;-61
2024/01/29 07:00:13;;;;;;;15.65;13.43;;;;;;;;;;10253155;28;20076;-61
2024/01/29 07:05:11;;;;;;;20.63;13.48;;;;;;;;;;10251281;28;20082;-61
2024/01/29 07:10:10;;;;;;;15.20;12.20;;;;;;;;;;10253309;28;20072;-61
2024/01/29 07:15:09;;;;;;;15.30;11.60;;;;;;;;;;10253170;28;20077;-61
2024/01/29 07:20:09;;;;;;;13.52;11.68;;;;;;;;;;10252214;28;20084;-61
2024/01/29 07:25:09;;;;;;;14.00;11.50;;;;;;;;;;10252827;28;20081;-62
2024/01/29 07:30:08;;;;;;;13.65;12.25;;;;;;;;;;10253133;28;20089;-62
2024/01/29 07:35:07;;;;;;;13.13;11.50;;;;;;;;;;10253094;28;20076;-62
2024/01/29 07:40:08;;;;;;;15.32;12.85;;;;;;;;;;10253312;28;20081;-62
2024/01/29 07:45:07;;;;;;;13.00;11.57;;;;;;;;;;10252320;28;20530;-62
2024/01/29 07:50:06;;;;;;;15.48;11.93;;;;;;;;;;10252284;28;20069;-62
2024/01/29 07:55:04;;;;;;;15.38;12.90;;;;;;;;;;10252308;28;20073;-61
2024/01/29 08:00:05;;;;;;;12.50;9.90;;;;;;;;;;10252496;28;20077;-61
2024/01/29 08:05:04;;;;;;;16.40;12.55;;;;;;;;;;10252239;28;20079;-61
2024/01/29 08:10:03;;;;;;;12.88;10.35;;;;;;;;;;10252645;28;20290;-62
2024/01/29 08:15:02;;;;;;;32.88;21.63;;;;;;;;;;10248724;28;20509;-61
2024/01/29 08:20:03;;;;;;;15.25;12.77;;;;;;;;;;10252726;28;20095;-61
2024/01/29 08:25:02;;;;;;;13.07;10.88;;;;;;;;;;10250226;28;20315;-61
2024/01/29 08:30:00;;;;;;;13.85;12.45;;;;;;;;;;10252286;28;20061;-61
2024/01/29 08:34:58;;;;;;;15.80;11.85;;;;;;;;;;10253630;28;20077;-62
2024/01/29 08:39:58;;;;;;;12.52;11.27;;;;;;;;;;10250370;28;20476;-62
2024/01/29 08:44:56;;;;;;;15.20;12.05;;;;;;;;;;10250575;28;20076;-61
2024/01/29 08:49:55;;;;;;;15.27;12.93;;;;;;;;;;10253663;28;20076;-62
2024/01/29 08:54:53;;;;;;;13.35;11.52;;;;;;;;;;10257587;28;20081;-62
2024/01/29 08:59:53;;;;;;;16.60;12.77;;;;;;;;;;10257812;28;20084;-60
2024/01/29 09:04:51;;;;;;;12.68;10.23;;;;;;;;;;10256993;28;20091;-61
2024/01/29 09:09:49;;;;;;;32.55;24.80;;;;;;;;;;10256718;28;20103;-61
2024/01/29 09:14:48;;;;;;;31.23;25.65;;;;;;;;;;10256708;28;20080;-61
2024/01/29 09:19:51;;;;;;;29.95;24.08;;;;;;;;;;10256935;28;20077;-61
2024/01/29 09:24:49;;;;;;;47.88;31.98;;;;;;;;;;10255551;28;20080;-61
2024/01/29 09:29:48;;;;;;;39.45;30.02;;;;;;;;;;10256696;28;20072;-61
2024/01/29 09:34:48;;;;;;;24.70;18.08;;;;;;;;;;10261692;28;20519;-61
2024/01/29 09:39:46;;;;;;;39.28;28.75;;;;;;;;;;10255813;28;20069;-61
2024/01/29 09:44:46;;;;;;;46.55;29.50;;;;;;;;;;10244885;28;20085;-61
2024/01/29 09:49:45;;;;;;;26.60;19.83;;;;;;;;;;10255279;28;20079;-61
2024/01/29 09:54:46;;;;;;;25.20;17.98;;;;;;;;;;10254060;28;20080;-61
2024/01/29 09:59:45;;;;;;;43.50;30.88;;;;;;;;;;10252922;28;20124;-62
2024/01/29 10:04:43;;;;;;;13.18;11.60;;;;;;;;;;10254303;28;20508;-62
2024/01/29 10:09:41;;;;;;;21.65;19.00;;;;;;;;;;10254327;28;20083;-61
2024/01/29 10:14:42;;;;;;;33.50;25.63;;;;;;;;;;10254519;28;20078;-60
2024/01/29 10:19:43;;;;;;;20.73;18.50;;;;;;;;;;10253779;28;20088;-61
2024/01/29 10:24:41;;;;;;;20.00;16.23;;;;;;;;;;10253697;28;20130;-60
2024/01/29 10:29:50;;;;;;;19.30;15.40;;;;;;;;;;10253813;28;20164;-61
2024/01/29 10:34:49;;;;;;;15.95;14.10;;;;;;;;;;10254778;28;20079;-61
2024/01/29 10:39:47;;;;;;;16.70;14.27;;;;;;;;;;10253289;28;20072;-61
2024/01/29 10:44:59;;;;;;;18.83;14.13;;;;;;;;;;10255056;28;20084;-61
2024/01/29 10:49:57;;;;;;;18.17;16.20;;;;;;;;;;10252788;28;20080;-61
2024/01/29 10:54:56;;;;;;;25.48;18.50;;;;;;;;;;10254383;28;20075;-61
2024/01/29 10:59:54;;;;;;;16.23;13.23;;;;;;;;;;10253591;28;20506;-61
2024/01/29 11:04:54;;;;;;;15.13;13.00;;;;;;;;;;10252259;28;20073;-61
2024/01/29 11:09:57;;;;;;;16.77;12.80;;;;;;;;;;10252818;28;20084;-60
2024/01/29 11:14:59;;;;;;;22.35;16.35;;;;;;;;;;10257134;28;20728;-61
2024/01/29 11:20:01;;;;;;;15.73;13.00;;;;;;;;;;10252674;28;20084;-61
2024/01/29 11:24:59;;;;;;;18.73;14.13;;;;;;;;;;10251578;28;20589;-61
2024/01/29 11:29:57;;;;;;;21.77;15.30;;;;;;;;;;10252874;28;20102;-61
2024/01/29 11:34:57;;;;;;;19.95;15.88;;;;;;;;;;10252319;28;20515;-62
2024/01/29 11:39:57;;;;;;;13.80;9.23;;;;;;;;;;10252215;28;20073;-61
2024/01/29 11:44:57;;;;;;;13.82;9.52;;;;;;;;;;10251774;28;20081;-61
2024/01/29 11:49:55;;;;;;;13.65;9.88;;;;;;;;;;10252307;28;20460;-61
2024/01/29 11:54:54;;;;;;;10.13;8.68;;;;;;;;;;10251158;28;20073;-60
2024/01/29 11:59:54;;;;;;;17.77;11.68;;;;;;;;;;10252275;28;20077;-61
2024/01/29 12:04:52;;;;;;;17.27;11.52;;;;;;;;;;10253238;28;20085;-61
2024/01/29 12:09:51;;;;;;;14.07;9.57;;;;;;;;;;10250614;28;20073;-60
2024/01/29 12:14:49;;;;;;;14.10;10.40;;;;;;;;;;10252130;28;20882;-61
2024/01/29 12:19:51;;;;;;;42.55;23.33;;;;;;;;;;10251787;28;20087;-61
2024/01/29 12:24:50;;;;;;;20.25;14.05;;;;;;;;;;10256421;28;20088;-62
2024/01/29 12:29:48;;;;;;;14.52;10.20;;;;;;;;;;10259420;28;20076;-62
2024/01/29 12:34:47;;;;;;;11.48;8.25;;;;;;;;;;10259306;28;20073;-60
2024/01/29 12:39:50;;;;;;;9.10;7.38;;;;;;;;;;10258440;28;20068;-61
2024/01/29 12:44:50;;;;;;;10.85;7.28;;;;;;;;;;10257750;28;20072;-60
2024/01/29 12:49:49;;;;;;;9.32;6.97;;;;;;;;;;10258222;28;20072;-61
2024/01/29 12:54:48;;;;;;;8.88;7.97;;;;;;;;;;10257829;28;20072;-60
2024/01/29 12:59:49;;;;;;;12.90;6.10;;;;;;;;;;10257313;28;20067;-61
2024/01/29 13:04:48;;;;;;;9.10;8.10;;;;;;;;;;10257221;28;20487;-62
2024/01/29 13:09:46;;;;;;;12.20;9.60;;;;;;;;;;10259096;28;20081;-60
2024/01/29 13:14:45;;;;;;;11.05;8.45;;;;;;;;;;10258286;28;20077;-62
2024/01/29 13:19:44;;;;;;;18.40;11.90;;;;;;;;;;10255889;28;20089;-62
2024/01/29 13:24:43;;;;;;;16.05;9.38;;;;;;;;;;10259136;28;20076;-62
2024/01/29 13:29:41;;;;;;;12.27;8.85;;;;;;;;;;10257214;28;20544;-62
2024/01/29 13:34:39;;;;;;;14.32;10.77;;;;;;;;;;10251729;28;20083;-61
2024/01/29 13:39:39;;;;;;;8.93;8.02;;;;;;;;;;10253407;28;20367;-62
2024/01/29 13:44:38;;;;;;;24.15;13.95;;;;;;;;;;10251022;28;20107;-61
2024/01/29 13:49:36;;;;;;;15.77;10.95;;;;;;;;;;10252051;28;20467;-62
2024/01/29 13:54:34;;;;;;;17.05;12.35;;;;;;;;;;10251530;28;20518;-62
2024/01/29 13:59:35;;;;;;;19.08;11.75;;;;;;;;;;10254415;28;20111;-63
2024/01/29 14:04:34;;;;;;;17.73;10.63;;;;;;;;;;10256803;28;20104;-62
2024/01/29 14:09:32;;;;;;;17.83;13.65;;;;;;;;;;10253557;28;20108;-62
2024/01/29 14:14:30;;;;;;;13.57;10.70;;;;;;;;;;10253891;28;20072;-61
2024/01/29 14:19:42;;;;;;;20.83;15.63;;;;;;;;;;10252862;28;20103;-62
2024/01/29 14:24:41;;;;;;;31.27;19.10;;;;;;;;;;10254023;28;20486;-62
2024/01/29 14:29:39;;;;;;;20.38;13.43;;;;;;;;;;10253622;28;20085;-62
2024/01/29 14:34:37;;;;;;;17.23;11.93;;;;;;;;;;10252819;28;20080;-62
2024/01/29 14:39:37;;;;;;;27.50;17.67;;;;;;;;;;10252774;28;20081;-61
2024/01/29 14:44:36;;;;;;;18.63;12.88;;;;;;;;;;10252686;28;20077;-62
2024/01/29 14:49:35;;;;;;;73.80;35.83;;;;;;;;;;10251457;28;20084;-62
2024/01/29 14:54:34;;;;;;;51.63;27.35;;;;;;;;;;10253838;28;20091;-61
2024/01/29 14:59:33;;;;;;;43.47;23.23;;;;;;;;;;10252853;28;20072;-61
2024/01/29 15:04:31;;;;;;;54.10;31.13;;;;;;;;;;10250137;28;20495;-62
2024/01/29 15:09:34;;;;;;;24.63;17.63;;;;;;;;;;10247380;28;20099;-61
2024/01/29 15:14:34;;;;;;;38.55;24.70;;;;;;;;;;10247650;28;20092;-61
2024/01/29 15:19:33;;;;;;;22.45;15.82;;;;;;;;;;10249020;28;20080;-62
2024/01/29 15:24:31;;;;;;;25.08;16.75;;;;;;;;;;10251122;28;20072;-62
2024/01/29 15:29:29;;;;;;;27.02;18.45;;;;;;;;;;10252749;28;20084;-62
2024/01/29 15:34:29;;;;;;;52.28;31.95;;;;;;;;;;10255237;28;20073;-62
2024/01/29 15:39:29;;;;;;;71.82;45.20;;;;;;;;;;10249440;28;20069;-62
2024/01/29 15:44:27;;;;;;;58.47;40.53;;;;;;;;;;10251899;28;20080;-62
2024/01/29 15:49:26;;;;;;;26.10;19.65;;;;;;;;;;10251937;28;20102;-61
2024/01/29 15:54:26;;;;;;;25.80;20.02;;;;;;;;;;10251517;28;20064;-62
2024/01/29 15:59:24;;;;;;;27.98;24.88;;;;;;;;;;10255446;28;20072;-61
2024/01/29 16:04:23;;;;;;;26.73;23.08;;;;;;;;;;10257777;28;20068;-59
2024/01/29 16:09:22;;;;;;;24.75;19.95;;;;;;;;;;10261133;28;20498;-60
2024/01/29 16:14:26;;;;;;;24.27;18.17;;;;;;;;;;10261911;28;20076;-61
2024/01/29 16:19:25;;;;;;;24.15;19.55;;;;;;;;;;10261316;28;20187;-61
2024/01/29 16:24:24;;;;;;;29.92;21.05;;;;;;;;;;10258310;28;20079;-60
2024/01/29 16:29:22;;;;;;;29.92;19.17;;;;;;;;;;10260143;28;20080;-60
2024/01/29 16:34:22;;;;;;;26.33;20.42;;;;;;;;;;10258985;28;20065;-63
2024/01/29 16:39:20;;;;;;;35.00;26.95;;;;;;;;;;10258999;28;20080;-61
2024/01/29 16:44:19;;;;;;;28.08;21.90;;;;;;;;;;10259470;28;20083;-61
2024/01/29 16:49:17;;;;;;;57.40;40.13;;;;;;;;;;10258027;28;20081;-60
2024/01/29 16:54:17;;;;;;;50.42;34.80;;;;;;;;;;10256264;28;20077;-62
2024/01/29 16:59:15;;;;;;;39.85;30.98;;;;;;;;;;10256670;28;20068;-62
2024/01/29 17:04:14;;;;;;;31.55;26.67;;;;;;;;;;10255197;28;20104;-62
2024/01/29 17:09:12;;;;;;;42.20;33.22;;;;;;;;;;10255695;28;20081;-61
2024/01/29 17:14:12;;;;;;;46.30;38.45;;;;;;;;;;10257322;28;20069;-61
2024/01/29 17:19:10;;;;;;;45.15;36.95;;;;;;;;;;10257602;28;20103;-60
2024/01/29 17:24:09;;;;;;;55.83;39.30;;;;;;;;;;10258162;28;20080;-60
2024/01/29 17:29:07;;;;;;;63.80;41.70;;;;;;;;;;10257261;28;20075;-61
2024/01/29 17:34:07;;;;;;;44.47;31.88;;;;;;;;;;10254335;28;20076;-61
2024/01/29 17:39:08;;;;;;;50.55;27.65;;;;;;;;;;10262230;28;20073;-61
2024/01/29 17:44:08;;;;;;;48.50;31.20;;;;;;;;;;10255498;28;20073;-60
2024/01/29 17:49:09;;;;;;;45.47;31.35;;;;;;;;;;10255825;28;20076;-61
2024/01/29 17:54:07;;;;;;;63.00;36.70;;;;;;;;;;10253979;28;20076;-61
2024/01/29 17:59:05;;;;;;;51.72;34.17;;;;;;;;;;10253353;28;20077;-61
2024/01/29 18:04:04;;;;;;;46.08;31.00;;;;;;;;;;10253373;28;20471;-61
2024/01/29 18:09:03;;;;;;;113.13;98.03;;;;;;;;;;10255132;28;20088;-61
2024/01/29 18:14:02;;;;;;;295.55;204.80;;;;;;;;;;10252607;28;20095;-61
2024/01/29 18:19:00;;;;;;;98.60;67.10;;;;;;;;;;10252949;28;20149;-61
2024/01/29 18:23:59;;;;;;;72.40;39.75;;;;;;;;;;10251834;28;20064;-61
2024/01/29 18:28:58;;;;;;;58.15;32.20;;;;;;;;;;10253415;28;20091;-61
2024/01/29 18:33:59;;;;;;;62.95;32.80;;;;;;;;;;10253389;28;20073;-61
2024/01/29 18:38:58;;;;;;;49.20;27.55;;;;;;;;;;10254866;28;20072;-62
2024/01/29 18:43:56;;;;;;;53.67;29.55;;;;;;;;;;10254877;28;20068;-62
2024/01/29 18:48:56;;;;;;;72.05;47.35;;;;;;;;;;10254286;28;20508;-60
2024/01/29 18:53:54;;;;;;;117.07;62.08;;;;;;;;;;10253778;28;20640;-62
2024/01/29 18:58:53;;;;;;;35.08;25.08;;;;;;;;;;10253590;28;20451;-61
2024/01/29 19:03:51;;;;;;;26.10;18.35;;;;;;;;;;10256932;28;20072;-61
2024/01/29 19:08:51;;;;;;;27.42;20.67;;;;;;;;;;10254547;28;20080;-61
2024/01/29 19:13:49;;;;;;;27.08;20.55;;;;;;;;;;10254648;28;20080;-61
2024/01/29 19:18:48;;;;;;;34.58;23.65;;;;;;;;;;10253685;28;20099;-62
2024/01/29 19:23:46;;;;;;;19.10;16.38;;;;;;;;;;10249692;28;20079;-61
2024/01/29 19:28:47;;;;;;;21.38;16.60;;;;;;;;;;10254295;28;20524;-61
2024/01/29 19:33:45;;;;;;;22.15;16.50;;;;;;;;;;10255722;28;20061;-62
2024/01/29 19:38:43;;;;;;;23.63;18.83;;;;;;;;;;10255856;28;20073;-61
2024/01/29 19:43:42;;;;;;;41.35;27.85;;;;;;;;;;10257118;28;20076;-60
2024/01/29 19:48:41;;;;;;;40.75;30.42;;;;;;;;;;10252746;28;20088;-61
2024/01/29 19:53:39;;;;;;;56.28;36.47;;;;;;;;;;10252396;28;20068;-62
2024/01/29 19:58:38;;;;;;;60.30;37.78;;;;;;;;;;10253195;28;20470;-61
2024/01/29 20:03:36;;;;;;;57.60;32.90;;;;;;;;;;10254762;28;20065;-61
2024/01/29 20:08:35;;;;;;;101.70;56.25;;;;;;;;;;10252560;28;20085;-62
2024/01/29 20:13:34;;;;;;;47.20;36.42;;;;;;;;;;10252994;28;20478;-62
2024/01/29 20:18:38;;;;;;;38.95;25.33;;;;;;;;;;10252534;28;20056;-61
2024/01/29 20:23:38;;;;;;;52.30;30.03;;;;;;;;;;10253142;28;20126;-62
2024/01/29 20:28:38;;;;;;;46.75;27.60;;;;;;;;;;10251683;28;20080;-61
2024/01/29 20:33:36;;;;;;;36.90;22.45;;;;;;;;;;10253125;28;20072;-60
2024/01/29 20:38:34;;;;;;;44.03;26.95;;;;;;;;;;10250894;28;20498;-61
2024/01/29 20:43:34;;;;;;;37.38;24.27;;;;;;;;;;10247545;28;20507;-62
2024/01/29 20:48:32;;;;;;;30.45;19.83;;;;;;;;;;10258918;28;20080;-61
2024/01/29 20:53:31;;;;;;;27.70;19.85;;;;;;;;;;10257797;28;20072;-61
2024/01/29 20:58:30;;;;;;;34.47;21.08;;;;;;;;;;10256117;28;20073;-61
2024/01/29 21:03:30;;;;;;;29.33;19.60;;;;;;;;;;10258871;28;20478;-62
2024/01/29 21:08:28;;;;;;;26.10;18.08;;;;;;;;;;10259220;28;20080;-63
2024/01/29 21:13:27;;;;;;;21.25;16.85;;;;;;;;;;10258621;28;20418;-61
2024/01/29 21:18:25;;;;;;;23.85;18.38;;;;;;;;;;10258468;28;20605;-62
2024/01/29 21:23:25;;;;;;;23.45;18.65;;;;;;;;;;10258198;28;20584;-61
2024/01/29 21:28:23;;;;;;;23.00;17.08;;;;;;;;;;10259579;28;20084;-62
2024/01/29 21:33:22;;;;;;;22.00;16.77;;;;;;;;;;10256808;28;20509;-62
2024/01/29 21:38:20;;;;;;;27.33;19.70;;;;;;;;;;10262392;28;20075;-60
2024/01/29 21:43:20;;;;;;;26.25;19.15;;;;;;;;;;10253064;28;20080;-62
2024/01/29 21:48:18;;;;;;;26.23;18.90;;;;;;;;;;10253819;28;20096;-62
2024/01/29 21:53:17;;;;;;;29.73;19.88;;;;;;;;;;10258644;28;20069;-62
2024/01/29 21:58:18;;;;;;;23.90;17.20;;;;;;;;;;10255676;28;20463;-59
2024/01/29 22:03:19;;;;;;;26.42;20.73;;;;;;;;;;10254647;28;20069;-60
2024/01/29 22:08:17;;;;;;;28.85;21.25;;;;;;;;;;10254847;28;20061;-60
2024/01/29 22:13:15;;;;;;;56.83;33.95;;;;;;;;;;10254379;28;20076;-62
2024/01/29 22:18:14;;;;;;;36.78;24.00;;;;;;;;;;10256539;28;20091;-62
2024/01/29 22:23:13;;;;;;;43.05;28.75;;;;;;;;;;10253047;28;20521;-62
2024/01/29 22:28:11;;;;;;;54.80;38.28;;;;;;;;;;10256721;28;20076;-61
2024/01/29 22:33:10;;;;;;;49.20;30.50;;;;;;;;;;10256690;28;20080;-62
2024/01/29 22:38:09;;;;;;;58.58;37.35;;;;;;;;;;10256505;28;20068;-61
2024/01/29 22:43:08;;;;;;;49.33;30.65;;;;;;;;;;10255146;28;20077;-62
2024/01/29 22:48:07;;;;;;;54.45;31.70;;;;;;;;;;10252958;28;20068;-60
2024/01/29 22:53:05;;;;;;;45.53;30.23;;;;;;;;;;10252274;28;20087;-61
2024/01/29 22:58:04;;;;;;;129.10;84.65;;;;;;;;;;10250907;28;20080;-61
2024/01/29 23:03:04;;;;;;;111.80;70.53;;;;;;;;;;10252221;28;20076;-60
2024/01/29 23:08:02;;;;;;;94.53;59.75;;;;;;;;;;10254016;28;20065;-60
2024/01/29 23:13:00;;;;;;;26.88;19.25;;;;;;;;;;10251796;28;20073;-62
2024/01/29 23:17:59;;;;;;;23.73;16.17;;;;;;;;;;10252691;28;20524;-61
2024/01/29 23:22:59;;;;;;;24.25;15.10;;;;;;;;;;10252005;28;20143;-61
2024/01/29 23:27:57;;;;;;;33.30;20.42;;;;;;;;;;10251637;28;20726;-61
2024/01/29 23:32:55;;;;;;;46.35;19.05;;;;;;;;;;10250883;28;20076;-61
2024/01/29 23:37:54;;;;;;;29.95;16.65;;;;;;;;;;10254503;28;20072;-62
2024/01/29 23:42:54;;;;;;;22.75;15.73;;;;;;;;;;10252987;28;20069;-62
2024/01/29 23:47:52;;;;;;;38.97;27.08;;;;;;;;;;10252810;28;20073;-61
2024/01/29 23:52:50;;;;;;;32.67;23.67;;;;;;;;;;10250655;28;20076;-60
2024/01/29 23:57:48;;;;;;;30.38;20.65;;;;;;;;;;10246037;28;20072;-61
